sensor_id;sensor_type;location;lat;lon;timestamp;pressure;altitude;pressure_sealevel;temperature;humidity
16806;BME280;8520;50.102;20.010;2023-05-19T00:01:02;99180.50;;;11.57;80.96
16806;BME280;8520;50.102;20.010;2023-05-19T00:03:31;99172.72;;;11.79;79.53
16806;BME280;8520;50.102;20.010;2023-05-19T00:06:01;99174.69;;;11.88;79.88
16806;BME280;8520;50.102;20.010;2023-05-19T00:08:33;99168.59;;;12.17;79.19
16806;BME280;8520;50.102;20.010;2023-05-19T00:11:01;99174.69;;;11.88;79.45
16806;BME280;8520;50.102;20.010;2023-05-19T00:13:30;99164.19;;;11.59;80.42
16806;BME280;8520;50.102;20.010;2023-05-19T00:15:59;99159.13;;;11.66;81.27
16806;BME280;8520;50.102;20.010;2023-05-19T00:18:27;99165.75;;;11.50;80.93
16806;BME280;8520;50.102;20.010;2023-05-19T00:20:56;99169.34;;;11.14;82.69
16806;BME280;8520;50.102;20.010;2023-05-19T00:23:25;99160.34;;;11.65;80.84
16806;BME280;8520;50.102;20.010;2023-05-19T00:25:53;99163.63;;;11.45;81.21
16806;BME280;8520;50.102;20.010;2023-05-19T00:28:21;99158.78;;;11.73;80.57
16806;BME280;8520;50.102;20.010;2023-05-19T00:30:51;99162.06;;;11.96;80.17
16806;BME280;8520;50.102;20.010;2023-05-19T00:33:19;99147.75;;;11.97;79.88
16806;BME280;8520;50.102;20.010;2023-05-19T00:35:47;99153.22;;;11.82;79.84
16806;BME280;8520;50.102;20.010;2023-05-19T00:38:15;99152.91;;;11.90;80.37
16806;BME280;8520;50.102;20.010;2023-05-19T00:40:45;99158.78;;;12.06;79.29
16806;BME280;8520;50.102;20.010;2023-05-19T00:43:13;99148.47;;;12.07;79.20
16806;BME280;8520;50.102;20.010;2023-05-19T00:45:41;99143.91;;;12.04;79.37
16806;BME280;8520;50.102;20.010;2023-05-19T00:48:09;99145.66;;;12.25;78.47
16806;BME280;8520;50.102;20.010;2023-05-19T00:50:37;99150.88;;;12.23;78.30
16806;BME280;8520;50.102;20.010;2023-05-19T00:53:06;99146.38;;;12.35;78.01
16806;BME280;8520;50.102;20.010;2023-05-19T00:55:36;99147.16;;;12.35;78.21
16806;BME280;8520;50.102;20.010;2023-05-19T00:58:08;99145.22;;;12.18;78.11
16806;BME280;8520;50.102;20.010;2023-05-19T01:00:36;99150.31;;;12.19;78.39
16806;BME280;8520;50.102;20.010;2023-05-19T01:03:06;99151.19;;;12.16;78.46
16806;BME280;8520;50.102;20.010;2023-05-19T01:05:39;99152.56;;;11.88;79.04
16806;BME280;8520;50.102;20.010;2023-05-19T01:08:08;99149.84;;;12.21;78.55
16806;BME280;8520;50.102;20.010;2023-05-19T01:10:36;99150.31;;;12.19;78.62
16806;BME280;8520;50.102;20.010;2023-05-19T01:13:04;99155.03;;;12.28;78.31
16806;BME280;8520;50.102;20.010;2023-05-19T01:15:39;99155.91;;;12.34;77.93
16806;BME280;8520;50.102;20.010;2023-05-19T01:18:20;99159.63;;;11.89;79.08
16806;BME280;8520;50.102;20.010;2023-05-19T01:21:01;99164.25;;;12.25;78.50
16806;BME280;8520;50.102;20.010;2023-05-19T01:23:36;99163.34;;;12.19;78.59
16806;BME280;8520;50.102;20.010;2023-05-19T01:26:31;99157.56;;;12.07;78.20
16806;BME280;8520;50.102;20.010;2023-05-19T01:29:27;99153.88;;;12.34;78.09
16806;BME280;8520;50.102;20.010;2023-05-19T01:31:59;99159.69;;;12.46;77.50
16806;BME280;8520;50.102;20.010;2023-05-19T01:34:29;99144.13;;;11.91;79.33
16806;BME280;8520;50.102;20.010;2023-05-19T01:37:00;99143.00;;;11.98;79.35
16806;BME280;8520;50.102;20.010;2023-05-19T01:39:28;99144.78;;;12.10;78.91
16806;BME280;8520;50.102;20.010;2023-05-19T01:41:56;99138.16;;;12.17;78.80
16806;BME280;8520;50.102;20.010;2023-05-19T01:44:27;99139.69;;;12.18;78.62
16806;BME280;8520;50.102;20.010;2023-05-19T01:46:57;99137.22;;;11.87;79.20
16806;BME280;8520;50.102;20.010;2023-05-19T01:49:26;99150.47;;;11.82;80.06
16806;BME280;8520;50.102;20.010;2023-05-19T01:51:55;99141.66;;;11.93;79.27
16806;BME280;8520;50.102;20.010;2023-05-19T01:54:23;99143.41;;;11.81;80.55
16806;BME280;8520;50.102;20.010;2023-05-19T01:56:55;99138.06;;;12.02;79.99
16806;BME280;8520;50.102;20.010;2023-05-19T01:59:41;99138.38;;;12.37;78.37
16806;BME280;8520;50.102;20.010;2023-05-19T02:02:21;99140.25;;;12.31;77.97
16806;BME280;8520;50.102;20.010;2023-05-19T02:04:56;99135.41;;;12.41;78.02
16806;BME280;8520;50.102;20.010;2023-05-19T02:07:30;99138.78;;;12.12;79.17
16806;BME280;8520;50.102;20.010;2023-05-19T02:10:06;99137.88;;;12.38;78.34
16806;BME280;8520;50.102;20.010;2023-05-19T02:12:38;99138.59;;;12.48;78.06
16806;BME280;8520;50.102;20.010;2023-05-19T02:15:10;99134.09;;;12.51;77.96
16806;BME280;8520;50.102;20.010;2023-05-19T02:17:42;99127.31;;;12.52;77.93
16806;BME280;8520;50.102;20.010;2023-05-19T02:20:14;99126.81;;;12.62;77.67
16806;BME280;8520;50.102;20.010;2023-05-19T02:22:43;99125.31;;;12.52;78.16
16806;BME280;8520;50.102;20.010;2023-05-19T02:25:12;99122.38;;;12.56;78.14
16806;BME280;8520;50.102;20.010;2023-05-19T02:27:40;99115.06;;;12.44;77.99
16806;BME280;8520;50.102;20.010;2023-05-19T02:30:09;99118.09;;;12.31;79.00
16806;BME280;8520;50.102;20.010;2023-05-19T02:32:37;99124.56;;;12.52;78.12
16806;BME280;8520;50.102;20.010;2023-05-19T02:35:08;99128.72;;;12.71;77.73
16806;BME280;8520;50.102;20.010;2023-05-19T02:37:36;99121.56;;;12.64;78.01
16806;BME280;8520;50.102;20.010;2023-05-19T02:40:05;99111.16;;;12.74;77.68
16806;BME280;8520;50.102;20.010;2023-05-19T02:42:33;99115.28;;;12.79;77.38
16806;BME280;8520;50.102;20.010;2023-05-19T02:45:02;99110.50;;;12.79;77.46
16806;BME280;8520;50.102;20.010;2023-05-19T02:47:31;99106.56;;;12.71;77.48
16806;BME280;8520;50.102;20.010;2023-05-19T02:50:03;99113.94;;;12.74;77.69
16806;BME280;8520;50.102;20.010;2023-05-19T02:52:33;99119.56;;;12.80;77.19
16806;BME280;8520;50.102;20.010;2023-05-19T02:55:01;99112.91;;;12.86;77.31
16806;BME280;8520;50.102;20.010;2023-05-19T02:57:29;99122.72;;;12.73;77.52
16806;BME280;8520;50.102;20.010;2023-05-19T02:59:58;99121.88;;;12.81;77.17
16806;BME280;8520;50.102;20.010;2023-05-19T03:02:27;99123.22;;;12.86;77.15
16806;BME280;8520;50.102;20.010;2023-05-19T03:04:55;99122.75;;;12.87;76.92
16806;BME280;8520;50.102;20.010;2023-05-19T03:07:23;99127.44;;;12.81;77.38
16806;BME280;8520;50.102;20.010;2023-05-19T03:09:53;99125.88;;;12.80;77.27
16806;BME280;8520;50.102;20.010;2023-05-19T03:12:22;99129.25;;;12.84;77.65
16806;BME280;8520;50.102;20.010;2023-05-19T03:14:50;99120.53;;;12.77;77.42
16806;BME280;8520;50.102;20.010;2023-05-19T03:17:18;99123.50;;;12.88;77.49
16806;BME280;8520;50.102;20.010;2023-05-19T03:19:46;99120.72;;;12.88;77.38
16806;BME280;8520;50.102;20.010;2023-05-19T03:22:15;99123.81;;;12.90;77.21
16806;BME280;8520;50.102;20.010;2023-05-19T03:24:44;99121.19;;;12.72;77.31
16806;BME280;8520;50.102;20.010;2023-05-19T03:27:13;99123.41;;;12.82;77.54
16806;BME280;8520;50.102;20.010;2023-05-19T03:29:42;99119.88;;;12.82;77.68
16806;BME280;8520;50.102;20.010;2023-05-19T03:32:10;99125.69;;;12.84;77.73
16806;BME280;8520;50.102;20.010;2023-05-19T03:34:38;99118.63;;;12.98;77.49
16806;BME280;8520;50.102;20.010;2023-05-19T03:37:07;99117.22;;;13.02;76.97
16806;BME280;8520;50.102;20.010;2023-05-19T03:39:37;99121.50;;;12.88;77.62
16806;BME280;8520;50.102;20.010;2023-05-19T03:42:05;99115.94;;;12.88;78.06
16806;BME280;8520;50.102;20.010;2023-05-19T03:44:35;99115.59;;;12.95;78.10
16806;BME280;8520;50.102;20.010;2023-05-19T03:47:04;99119.56;;;12.80;78.04
16806;BME280;8520;50.102;20.010;2023-05-19T03:49:51;99119.03;;;12.90;77.77
16806;BME280;8520;50.102;20.010;2023-05-19T03:52:38;99111.69;;;13.02;78.17
16806;BME280;8520;50.102;20.010;2023-05-19T03:55:31;99124.28;;;13.03;77.92
16806;BME280;8520;50.102;20.010;2023-05-19T03:57:59;99122.28;;;13.04;77.64
16806;BME280;8520;50.102;20.010;2023-05-19T04:00:29;99115.69;;;13.01;77.80
16806;BME280;8520;50.102;20.010;2023-05-19T04:02:58;99115.91;;;13.12;77.74
16806;BME280;8520;50.102;20.010;2023-05-19T04:05:27;99122.97;;;13.28;77.39
16806;BME280;8520;50.102;20.010;2023-05-19T04:07:55;99123.94;;;13.10;77.18
16806;BME280;8520;50.102;20.010;2023-05-19T04:10:23;99129.56;;;13.16;77.48
16806;BME280;8520;50.102;20.010;2023-05-19T04:12:53;99126.97;;;13.12;77.55
16806;BME280;8520;50.102;20.010;2023-05-19T04:15:21;99138.75;;;13.37;77.61
16806;BME280;8520;50.102;20.010;2023-05-19T04:17:51;99137.31;;;13.41;77.17
16806;BME280;8520;50.102;20.010;2023-05-19T04:20:19;99132.16;;;13.49;77.04
16806;BME280;8520;50.102;20.010;2023-05-19T04:22:47;99139.03;;;13.39;76.97
16806;BME280;8520;50.102;20.010;2023-05-19T04:25:15;99133.13;;;13.46;76.89
16806;BME280;8520;50.102;20.010;2023-05-19T04:27:45;99133.69;;;13.50;76.64
16806;BME280;8520;50.102;20.010;2023-05-19T04:30:14;99132.66;;;13.47;76.96
16806;BME280;8520;50.102;20.010;2023-05-19T04:32:50;99135.06;;;13.55;76.69
16806;BME280;8520;50.102;20.010;2023-05-19T04:35:19;99140.38;;;13.73;76.50
16806;BME280;8520;50.102;20.010;2023-05-19T04:37:48;99130.97;;;13.85;76.26
16806;BME280;8520;50.102;20.010;2023-05-19T04:40:24;99133.66;;;13.79;76.11
16806;BME280;8520;50.102;20.010;2023-05-19T04:42:52;99133.59;;;13.74;75.80
16806;BME280;8520;50.102;20.010;2023-05-19T04:45:21;99139.91;;;13.74;76.21
16806;BME280;8520;50.102;20.010;2023-05-19T04:47:55;99131.09;;;13.76;76.16
16806;BME280;8520;50.102;20.010;2023-05-19T04:50:24;99128.22;;;13.41;77.20
16806;BME280;8520;50.102;20.010;2023-05-19T04:52:55;99130.78;;;13.44;77.03
16806;BME280;8520;50.102;20.010;2023-05-19T04:55:25;99130.63;;;13.63;76.86
16806;BME280;8520;50.102;20.010;2023-05-19T04:57:53;99132.41;;;13.80;76.37
16806;BME280;8520;50.102;20.010;2023-05-19T05:00:22;99129.19;;;13.82;76.76
16806;BME280;8520;50.102;20.010;2023-05-19T05:02:57;99131.34;;;13.93;76.38
16806;BME280;8520;50.102;20.010;2023-05-19T05:05:28;99136.72;;;13.82;76.33
16806;BME280;8520;50.102;20.010;2023-05-19T05:07:57;99128.41;;;13.82;76.87
16806;BME280;8520;50.102;20.010;2023-05-19T05:10:28;99128.75;;;13.89;76.24
16806;BME280;8520;50.102;20.010;2023-05-19T05:12:57;99136.28;;;14.03;75.83
16806;BME280;8520;50.102;20.010;2023-05-19T05:15:26;99126.59;;;14.14;75.75
16806;BME280;8520;50.102;20.010;2023-05-19T05:18:00;99133.25;;;14.01;75.38
16806;BME280;8520;50.102;20.010;2023-05-19T05:20:29;99129.44;;;13.84;76.64
16806;BME280;8520;50.102;20.010;2023-05-19T05:22:59;99129.28;;;13.73;75.97
16806;BME280;8520;50.102;20.010;2023-05-19T05:25:30;99138.44;;;13.79;76.12
16806;BME280;8520;50.102;20.010;2023-05-19T05:27:58;99128.22;;;13.70;76.28
16806;BME280;8520;50.102;20.010;2023-05-19T05:30:32;99129.19;;;13.82;76.04
16806;BME280;8520;50.102;20.010;2023-05-19T05:33:03;99129.50;;;13.90;75.83
16806;BME280;8520;50.102;20.010;2023-05-19T05:35:37;99135.03;;;14.04;75.69
16806;BME280;8520;50.102;20.010;2023-05-19T05:38:07;99132.75;;;14.03;75.91
16806;BME280;8520;50.102;20.010;2023-05-19T05:40:38;99141.69;;;14.27;75.37
16806;BME280;8520;50.102;20.010;2023-05-19T05:43:07;99132.28;;;14.45;74.95
16806;BME280;8520;50.102;20.010;2023-05-19T05:45:41;99131.97;;;14.38;74.71
16806;BME280;8520;50.102;20.010;2023-05-19T05:48:11;99143.22;;;14.28;74.69
16806;BME280;8520;50.102;20.010;2023-05-19T05:50:41;99143.78;;;14.18;74.32
16806;BME280;8520;50.102;20.010;2023-05-19T05:53:14;99137.28;;;14.21;75.21
16806;BME280;8520;50.102;20.010;2023-05-19T05:55:46;99142.94;;;14.47;74.09
16806;BME280;8520;50.102;20.010;2023-05-19T05:58:15;99149.31;;;14.32;74.56
16806;BME280;8520;50.102;20.010;2023-05-19T06:00:44;99147.28;;;14.53;74.71
16806;BME280;8520;50.102;20.010;2023-05-19T06:03:15;99148.13;;;14.59;74.51
16806;BME280;8520;50.102;20.010;2023-05-19T06:05:44;99149.28;;;14.68;74.43
16806;BME280;8520;50.102;20.010;2023-05-19T06:08:12;99143.72;;;14.68;74.60
16806;BME280;8520;50.102;20.010;2023-05-19T06:10:41;99148.63;;;14.58;75.14
16806;BME280;8520;50.102;20.010;2023-05-19T06:13:12;99149.97;;;14.62;75.34
16806;BME280;8520;50.102;20.010;2023-05-19T06:15:42;99148.28;;;14.71;74.49
16806;BME280;8520;50.102;20.010;2023-05-19T06:18:23;99163.72;;;14.92;74.17
16806;BME280;8520;50.102;20.010;2023-05-19T06:20:51;99157.25;;;14.80;73.93
16806;BME280;8520;50.102;20.010;2023-05-19T06:23:19;99168.31;;;14.75;74.29
16806;BME280;8520;50.102;20.010;2023-05-19T06:25:48;99165.66;;;14.86;74.42
16806;BME280;8520;50.102;20.010;2023-05-19T06:28:16;99163.63;;;15.33;73.31
16806;BME280;8520;50.102;20.010;2023-05-19T06:30:44;99174.22;;;15.08;73.64
16806;BME280;8520;50.102;20.010;2023-05-19T06:33:31;99169.69;;;14.85;74.17
16806;BME280;8520;50.102;20.010;2023-05-19T06:36:00;99172.53;;;14.90;74.06
16806;BME280;8520;50.102;20.010;2023-05-19T06:38:29;99170.44;;;15.06;73.80
16806;BME280;8520;50.102;20.010;2023-05-19T06:40:57;99171.31;;;15.17;73.28
16806;BME280;8520;50.102;20.010;2023-05-19T06:43:25;99171.47;;;15.08;74.10
16806;BME280;8520;50.102;20.010;2023-05-19T06:45:56;99166.06;;;14.99;73.99
16806;BME280;8520;50.102;20.010;2023-05-19T06:48:25;99174.69;;;15.27;73.38
16806;BME280;8520;50.102;20.010;2023-05-19T06:50:54;99176.44;;;15.25;73.01
16806;BME280;8520;50.102;20.010;2023-05-19T06:53:23;99173.22;;;15.32;72.68
16806;BME280;8520;50.102;20.010;2023-05-19T06:55:52;99181.31;;;15.30;73.09
16806;BME280;8520;50.102;20.010;2023-05-19T06:58:30;99178.38;;;15.44;72.88
16806;BME280;8520;50.102;20.010;2023-05-19T07:01:01;99171.69;;;15.31;72.90
16806;BME280;8520;50.102;20.010;2023-05-19T07:03:34;99179.38;;;15.41;72.76
16806;BME280;8520;50.102;20.010;2023-05-19T07:06:04;99170.50;;;15.37;72.95
16806;BME280;8520;50.102;20.010;2023-05-19T07:08:35;99168.66;;;15.29;72.94
16806;BME280;8520;50.102;20.010;2023-05-19T07:11:05;99170.78;;;15.39;72.84
16806;BME280;8520;50.102;20.010;2023-05-19T07:13:33;99173.63;;;15.19;73.58
16806;BME280;8520;50.102;20.010;2023-05-19T07:16:03;99173.16;;;15.26;73.65
16806;BME280;8520;50.102;20.010;2023-05-19T07:18:32;99162.84;;;15.32;72.98
16806;BME280;8520;50.102;20.010;2023-05-19T07:21:00;99160.94;;;15.44;73.13
16806;BME280;8520;50.102;20.010;2023-05-19T07:23:29;99160.09;;;15.64;72.12
16806;BME280;8520;50.102;20.010;2023-05-19T07:25:57;99162.03;;;15.78;71.84
16806;BME280;8520;50.102;20.010;2023-05-19T07:28:25;99158.53;;;15.57;72.36
16806;BME280;8520;50.102;20.010;2023-05-19T07:30:53;99169.50;;;15.66;71.70
16806;BME280;8520;50.102;20.010;2023-05-19T07:33:22;99153.94;;;15.54;72.40
16806;BME280;8520;50.102;20.010;2023-05-19T07:35:50;99165.75;;;15.43;72.75
16806;BME280;8520;50.102;20.010;2023-05-19T07:38:18;99165.56;;;15.53;72.55
16806;BME280;8520;50.102;20.010;2023-05-19T07:40:47;99170.25;;;15.67;72.15
16806;BME280;8520;50.102;20.010;2023-05-19T07:43:15;99169.22;;;15.64;71.88
16806;BME280;8520;50.102;20.010;2023-05-19T07:45:44;99170.94;;;15.88;71.66
16806;BME280;8520;50.102;20.010;2023-05-19T07:48:12;99168.63;;;15.81;71.30
16806;BME280;8520;50.102;20.010;2023-05-19T07:50:40;99168.28;;;16.04;70.66
16806;BME280;8520;50.102;20.010;2023-05-19T07:53:08;99171.38;;;15.75;70.97
16806;BME280;8520;50.102;20.010;2023-05-19T07:55:36;99161.00;;;16.13;70.36
16806;BME280;8520;50.102;20.010;2023-05-19T07:58:06;99164.09;;;15.83;71.29
16806;BME280;8520;50.102;20.010;2023-05-19T08:00:34;99168.44;;;15.90;71.23
16806;BME280;8520;50.102;20.010;2023-05-19T08:03:02;99167.28;;;16.08;71.01
16806;BME280;8520;50.102;20.010;2023-05-19T08:05:30;99159.94;;;16.04;70.83
16806;BME280;8520;50.102;20.010;2023-05-19T08:07:58;99158.03;;;15.85;70.95
16806;BME280;8520;50.102;20.010;2023-05-19T08:10:27;99164.19;;;16.00;71.44
16806;BME280;8520;50.102;20.010;2023-05-19T08:12:55;99168.34;;;16.10;71.08
16806;BME280;8520;50.102;20.010;2023-05-19T08:15:24;99161.56;;;15.85;71.95
16806;BME280;8520;50.102;20.010;2023-05-19T08:17:52;99164.06;;;16.15;70.52
16806;BME280;8520;50.102;20.010;2023-05-19T08:20:20;99162.84;;;16.27;70.22
16806;BME280;8520;50.102;20.010;2023-05-19T08:22:50;99162.03;;;16.15;69.88
16806;BME280;8520;50.102;20.010;2023-05-19T08:25:18;99166.75;;;16.41;70.05
16806;BME280;8520;50.102;20.010;2023-05-19T08:27:46;99163.75;;;16.55;69.57
16806;BME280;8520;50.102;20.010;2023-05-19T08:30:14;99160.19;;;16.49;69.04
16806;BME280;8520;50.102;20.010;2023-05-19T08:32:44;99167.41;;;16.73;68.91
16806;BME280;8520;50.102;20.010;2023-05-19T08:35:12;99165.56;;;16.58;68.41
16806;BME280;8520;50.102;20.010;2023-05-19T08:37:41;99161.75;;;16.61;67.92
16806;BME280;8520;50.102;20.010;2023-05-19T08:40:15;99160.19;;;16.49;68.22
16806;BME280;8520;50.102;20.010;2023-05-19T08:42:43;99165.63;;;16.27;69.32
16806;BME280;8520;50.102;20.010;2023-05-19T08:45:12;99157.91;;;16.48;68.84
16806;BME280;8520;50.102;20.010;2023-05-19T08:47:40;99161.47;;;16.54;68.77
16806;BME280;8520;50.102;20.010;2023-05-19T08:50:10;99164.81;;;16.63;68.68
16806;BME280;8520;50.102;20.010;2023-05-19T08:52:44;99164.59;;;16.67;68.98
16806;BME280;8520;50.102;20.010;2023-05-19T08:55:29;99168.09;;;16.56;69.52
16806;BME280;8520;50.102;20.010;2023-05-19T08:58:00;99174.63;;;16.48;69.35
16806;BME280;8520;50.102;20.010;2023-05-19T09:00:30;99170.13;;;16.56;69.33
16806;BME280;8520;50.102;20.010;2023-05-19T09:02:59;99178.13;;;16.43;69.30
16806;BME280;8520;50.102;20.010;2023-05-19T09:05:49;99172.59;;;16.48;69.13
16806;BME280;8520;50.102;20.010;2023-05-19T09:08:17;99180.75;;;16.63;68.95
16806;BME280;8520;50.102;20.010;2023-05-19T09:10:46;99175.22;;;16.69;68.66
16806;BME280;8520;50.102;20.010;2023-05-19T09:13:14;99182.03;;;16.56;69.32
16806;BME280;8520;50.102;20.010;2023-05-19T09:15:43;99180.03;;;16.68;69.57
16806;BME280;8520;50.102;20.010;2023-05-19T09:18:12;99192.56;;;16.84;69.49
16806;BME280;8520;50.102;20.010;2023-05-19T09:20:42;99186.84;;;16.61;70.31
16806;BME280;8520;50.102;20.010;2023-05-19T09:23:16;99179.00;;;16.60;69.16
16806;BME280;8520;50.102;20.010;2023-05-19T09:25:48;99185.66;;;16.74;68.44
16806;BME280;8520;50.102;20.010;2023-05-19T09:28:22;99183.44;;;16.89;68.65
16806;BME280;8520;50.102;20.010;2023-05-19T09:30:58;99184.09;;;16.67;68.87
16806;BME280;8520;50.102;20.010;2023-05-19T09:33:27;99178.78;;;16.69;69.16
16806;BME280;8520;50.102;20.010;2023-05-19T09:35:55;99189.81;;;16.47;69.35
16806;BME280;8520;50.102;20.010;2023-05-19T09:38:25;99186.09;;;16.61;69.25
16806;BME280;8520;50.102;20.010;2023-05-19T09:40:55;99185.44;;;16.77;67.88
16806;BME280;8520;50.102;20.010;2023-05-19T09:43:26;99190.22;;;16.71;67.62
16806;BME280;8520;50.102;20.010;2023-05-19T09:45:58;99192.41;;;16.61;68.51
16806;BME280;8520;50.102;20.010;2023-05-19T09:48:27;99186.13;;;16.67;68.04
16806;BME280;8520;50.102;20.010;2023-05-19T09:50:56;99183.19;;;16.87;68.01
16806;BME280;8520;50.102;20.010;2023-05-19T09:53:28;99180.66;;;16.89;68.09
16806;BME280;8520;50.102;20.010;2023-05-19T09:55:57;99177.66;;;17.09;67.35
16806;BME280;8520;50.102;20.010;2023-05-19T09:58:25;99185.50;;;16.94;67.81
16806;BME280;8520;50.102;20.010;2023-05-19T10:00:54;99184.03;;;17.15;67.08
16806;BME280;8520;50.102;20.010;2023-05-19T10:03:24;99183.28;;;17.26;67.00
16806;BME280;8520;50.102;20.010;2023-05-19T10:05:52;99185.06;;;17.12;67.61
16806;BME280;8520;50.102;20.010;2023-05-19T10:08:21;99187.06;;;17.06;67.20
16806;BME280;8520;50.102;20.010;2023-05-19T10:10:53;99182.28;;;17.24;67.04
16806;BME280;8520;50.102;20.010;2023-05-19T10:13:23;99183.31;;;17.32;66.85
16806;BME280;8520;50.102;20.010;2023-05-19T10:15:52;99179.91;;;17.00;67.66
16806;BME280;8520;50.102;20.010;2023-05-19T10:18:25;99176.56;;;16.79;68.70
16806;BME280;8520;50.102;20.010;2023-05-19T10:20:54;99170.38;;;17.45;67.57
16806;BME280;8520;50.102;20.010;2023-05-19T10:23:24;99167.59;;;17.29;67.61
16806;BME280;8520;50.102;20.010;2023-05-19T10:25:56;99172.22;;;16.72;68.95
16806;BME280;8520;50.102;20.010;2023-05-19T10:28:30;99169.56;;;17.06;67.76
16806;BME280;8520;50.102;20.010;2023-05-19T10:31:04;99164.22;;;16.97;68.56
16806;BME280;8520;50.102;20.010;2023-05-19T10:33:40;99164.00;;;16.52;70.46
16806;BME280;8520;50.102;20.010;2023-05-19T10:36:24;99156.63;;;17.03;69.11
16806;BME280;8520;50.102;20.010;2023-05-19T10:39:01;99170.59;;;17.14;68.43
16806;BME280;8520;50.102;20.010;2023-05-19T10:41:38;99163.25;;;17.28;67.71
16806;BME280;8520;50.102;20.010;2023-05-19T10:44:15;99163.97;;;17.06;67.59
16806;BME280;8520;50.102;20.010;2023-05-19T10:46:45;99167.50;;;16.95;68.83
16806;BME280;8520;50.102;20.010;2023-05-19T10:49:19;99173.53;;;16.77;69.88
16806;BME280;8520;50.102;20.010;2023-05-19T10:51:47;99175.06;;;16.89;69.36
16806;BME280;8520;50.102;20.010;2023-05-19T10:54:16;99171.72;;;16.74;69.94
16806;BME280;8520;50.102;20.010;2023-05-19T10:56:48;99167.78;;;17.08;69.26
16806;BME280;8520;50.102;20.010;2023-05-19T10:59:33;99171.72;;;16.74;69.58
16806;BME280;8520;50.102;20.010;2023-05-19T11:02:03;99163.97;;;17.06;69.00
16806;BME280;8520;50.102;20.010;2023-05-19T11:04:48;99169.56;;;17.06;68.96
16806;BME280;8520;50.102;20.010;2023-05-19T11:07:18;99170.81;;;16.94;69.29
16806;BME280;8520;50.102;20.010;2023-05-19T11:09:48;99169.84;;;17.19;68.56
16806;BME280;8520;50.102;20.010;2023-05-19T11:12:22;99167.13;;;17.47;67.92
16806;BME280;8520;50.102;20.010;2023-05-19T11:14:51;99175.50;;;17.69;67.31
16806;BME280;8520;50.102;20.010;2023-05-19T11:17:19;99167.84;;;17.53;67.42
16806;BME280;8520;50.102;20.010;2023-05-19T11:19:53;99173.94;;;17.63;66.98
16806;BME280;8520;50.102;20.010;2023-05-19T11:22:22;99170.13;;;17.55;67.37
16806;BME280;8520;50.102;20.010;2023-05-19T11:24:53;99173.41;;;17.36;68.06
16806;BME280;8520;50.102;20.010;2023-05-19T11:27:26;99174.97;;;17.60;67.85
16806;BME280;8520;50.102;20.010;2023-05-19T11:29:58;99172.44;;;17.56;67.47
16806;BME280;8520;50.102;20.010;2023-05-19T11:32:29;99174.94;;;17.32;68.14
16806;BME280;8520;50.102;20.010;2023-05-19T11:34:59;99171.72;;;17.84;67.42
16806;BME280;8520;50.102;20.010;2023-05-19T11:37:30;99163.84;;;17.88;66.69
16806;BME280;8520;50.102;20.010;2023-05-19T11:40:00;99171.44;;;17.59;67.19
16806;BME280;8520;50.102;20.010;2023-05-19T11:42:32;99172.16;;;17.43;68.10
16806;BME280;8520;50.102;20.010;2023-05-19T11:45:00;99171.44;;;17.98;67.04
16806;BME280;8520;50.102;20.010;2023-05-19T11:47:30;99185.16;;;17.80;66.57
16806;BME280;8520;50.102;20.010;2023-05-19T11:50:17;99178.81;;;17.85;66.98
16806;BME280;8520;50.102;20.010;2023-05-19T11:52:47;99185.66;;;17.72;67.33
16806;BME280;8520;50.102;20.010;2023-05-19T11:55:15;99186.94;;;17.77;67.14
16806;BME280;8520;50.102;20.010;2023-05-19T11:57:55;99178.03;;;17.90;66.87
16806;BME280;8520;50.102;20.010;2023-05-19T12:00:34;99180.34;;;17.74;67.50
16806;BME280;8520;50.102;20.010;2023-05-19T12:03:04;99180.09;;;17.67;67.57
16806;BME280;8520;50.102;20.010;2023-05-19T12:05:32;99190.00;;;17.85;67.27
16806;BME280;8520;50.102;20.010;2023-05-19T12:08:08;99183.88;;;17.69;67.69
16806;BME280;8520;50.102;20.010;2023-05-19T12:10:37;99179.06;;;17.81;66.88
16806;BME280;8520;50.102;20.010;2023-05-19T12:13:07;99184.63;;;17.98;66.86
16806;BME280;8520;50.102;20.010;2023-05-19T12:15:37;99184.41;;;17.79;66.55
16806;BME280;8520;50.102;20.010;2023-05-19T12:18:05;99178.53;;;17.83;67.08
16806;BME280;8520;50.102;20.010;2023-05-19T12:20:34;99175.50;;;18.03;66.90
16806;BME280;8520;50.102;20.010;2023-05-19T12:23:03;99178.00;;;18.18;66.26
16806;BME280;8520;50.102;20.010;2023-05-19T12:25:32;99173.47;;;18.20;66.19
16806;BME280;8520;50.102;20.010;2023-05-19T12:28:01;99170.69;;;17.98;66.44
16806;BME280;8520;50.102;20.010;2023-05-19T12:30:32;99178.03;;;18.01;66.47
16806;BME280;8520;50.102;20.010;2023-05-19T12:33:01;99167.63;;;18.01;66.38
16806;BME280;8520;50.102;20.010;2023-05-19T12:35:31;99177.00;;;18.21;66.12
16806;BME280;8520;50.102;20.010;2023-05-19T12:38:03;99169.66;;;18.12;66.17
16806;BME280;8520;50.102;20.010;2023-05-19T12:40:32;99174.75;;;17.91;66.59
16806;BME280;8520;50.102;20.010;2023-05-19T12:43:02;99170.66;;;18.09;66.76
16806;BME280;8520;50.102;20.010;2023-05-19T12:45:34;99161.81;;;17.94;66.96
16806;BME280;8520;50.102;20.010;2023-05-19T12:48:03;99161.25;;;17.34;68.14
16806;BME280;8520;50.102;20.010;2023-05-19T12:50:32;99155.72;;;17.67;67.32
16806;BME280;8520;50.102;20.010;2023-05-19T12:53:01;99168.41;;;17.80;67.82
16806;BME280;8520;50.102;20.010;2023-05-19T12:55:29;99158.00;;;17.86;67.75
16806;BME280;8520;50.102;20.010;2023-05-19T12:57:57;99167.38;;;17.83;67.63
16806;BME280;8520;50.102;20.010;2023-05-19T13:00:26;99165.06;;;18.09;66.93
16806;BME280;8520;50.102;20.010;2023-05-19T13:02:59;99157.50;;;17.76;67.96
16806;BME280;8520;50.102;20.010;2023-05-19T13:05:30;99164.06;;;17.56;68.47
16806;BME280;8520;50.102;20.010;2023-05-19T13:08:00;99159.28;;;17.85;68.12
16806;BME280;8520;50.102;20.010;2023-05-19T13:10:29;99162.06;;;17.85;67.73
16806;BME280;8520;50.102;20.010;2023-05-19T13:12:59;99153.16;;;17.81;68.21
16806;BME280;8520;50.102;20.010;2023-05-19T13:15:29;99150.91;;;17.85;67.91
16806;BME280;8520;50.102;20.010;2023-05-19T13:18:03;99153.13;;;17.25;69.42